Time;durP1;ratioP1;P1;durP2;ratioP2;P2;SDS_P1;SDS_P2;PMS_P1;PMS_P2;Temp;Humidity;BMP_temperature;BMP_pressure;BME280_temperature;BME280_humidity;BME280_pressure;Samples;Min_cycle;Max_cycle;Signal;HPM_P1;HPM_P2
2022/01/25 00:33:30;;;;;;;66.18;20.85;;;-6.30;99.90;;;-8.96;80.42;102001.06;10400878;27;97044;-78
2022/01/25 00:38:34;;;;;;;61.20;18.83;;;-6.40;99.90;;;-9.07;80.34;102000.19;10410830;27;97226;-78
2022/01/25 00:43:37;;;;;;;51.80;19.33;;;-6.40;99.90;;;-9.19;79.80;102007.91;10388822;28;96885;-78
2022/01/25 00:48:44;;;;;;;64.97;19.43;;;-6.60;99.90;;;-9.27;80.93;101989.88;10388409;28;96516;-78
2022/01/25 00:54:01;;;;;;;59.10;19.10;;;-6.60;99.90;;;-9.33;80.90;101997.59;10392902;28;96749;-78
2022/01/25 00:59:08;;;;;;;57.17;17.77;;;-6.70;99.90;;;-9.39;81.06;101999.31;10407945;28;96759;-78
2022/01/25 01:04:11;;;;;;;48.17;17.53;;;-6.80;99.90;;;-9.44;81.46;101983.84;10372213;28;96634;-78
2022/01/25 01:09:18;;;;;;;46.13;16.63;;;-6.80;99.90;;;-9.48;81.95;101980.41;10379365;28;97642;-78
2022/01/25 01:36:26;;;;;;;52.53;17.77;;;-7.10;99.90;;;-9.76;82.40;101937.50;10374444;28;96531;-78
2022/01/25 01:46:41;;;;;;;45.17;18.17;;;-7.20;99.90;;;-9.78;83.22;101936.63;10383322;28;96659;-77
2022/01/25 01:51:44;;;;;;;46.23;16.03;;;-7.20;99.90;;;-9.79;83.90;101935.75;10414478;27;96513;-77
2022/01/25 01:56:47;;;;;;;52.00;18.33;;;-7.20;99.90;;;-9.79;83.80;101924.63;10401387;28;96501;-78
2022/01/25 02:01:50;;;;;;;42.33;16.23;;;-7.20;99.90;;;-9.75;83.98;101914.34;10411357;28;97358;-78
2022/01/25 02:06:54;;;;;;;57.13;19.60;;;-7.20;99.90;;;-9.69;84.03;101910.06;10412058;28;96609;-78
2022/01/25 02:11:57;;;;;;;36.70;12.23;;;-7.10;99.90;;;-9.65;84.67;101911.75;10417444;27;96464;-78
2022/01/25 02:17:09;;;;;;;27.47;10.63;;;-7.10;99.90;;;-9.64;84.75;101910.94;10399108;27;96646;-78
2022/01/25 02:22:29;;;;;;;28.70;9.77;;;-7.10;99.90;;;-9.65;84.71;101904.94;10396064;28;96525;-77
2022/01/25 02:27:32;;;;;;;31.60;10.70;;;-7.10;99.90;;;-9.67;84.79;101893.75;10393278;28;96728;-78
2022/01/25 02:32:35;;;;;;;30.97;8.33;;;-7.10;99.90;;;-9.71;84.77;101886.91;10418404;28;96575;-77
2022/01/25 02:37:38;;;;;;;40.40;10.40;;;-7.20;99.90;;;-9.69;84.67;101876.63;10412873;27;96681;-78
2022/01/25 02:42:41;;;;;;;51.37;14.43;;;-7.10;99.90;;;-9.66;84.44;101867.16;10418107;28;96451;-78
2022/01/25 02:53:06;;;;;;;;;;;-7.10;99.90;;;-9.72;84.59;101860.28;10377523;28;97078;-77
2022/01/25 02:58:09;;;;;;;59.17;15.50;;;-7.20;99.90;;;-9.80;84.64;101851.72;10395847;28;96632;-78
2022/01/25 03:03:12;;;;;;;49.87;14.53;;;-7.20;99.90;;;-9.80;84.53;101850.88;10394275;27;96534;-77
2022/01/25 03:08:15;;;;;;;55.87;16.80;;;-7.20;99.90;;;-9.84;84.44;101847.44;10359063;28;96689;-78
2022/01/25 03:13:23;;;;;;;57.60;18.40;;;-7.30;99.90;;;-9.88;84.67;101848.31;10377423;28;97576;-78
2022/01/25 03:23:31;;;;;;;45.50;16.40;;;-7.40;99.90;;;-9.92;84.20;101846.56;10389705;28;96662;-78
2022/01/25 03:28:34;;;;;;;59.57;18.53;;;-7.40;99.90;;;-9.93;84.92;101842.28;10417262;28;96551;-78
2022/01/25 03:33:37;;;;;;;90.60;22.93;;;-7.30;99.90;;;-9.87;85.00;101836.28;10388212;28;96629;-79
2022/01/25 03:38:41;;;;;;;56.47;21.87;;;-7.30;99.90;;;-9.71;84.83;101831.16;10431244;27;96573;-78
2022/01/25 03:43:51;;;;;;;33.10;12.67;;;-7.30;99.90;;;-9.43;85.02;101811.38;10400403;28;96520;-78
2022/01/25 03:54:16;;;;;;;43.88;13.68;;;-6.80;99.90;;;-8.65;85.95;101789.69;10400443;28;97060;-78
2022/01/25 03:59:19;;;;;;;35.30;13.80;;;-6.50;99.90;;;-8.32;86.29;101790.34;10415469;28;96486;-79
2022/01/25 04:04:25;;;;;;;55.47;19.60;;;-6.20;99.90;;;-8.06;86.49;101780.69;10376435;28;96660;-79
2022/01/25 04:09:28;;;;;;;53.40;19.37;;;-5.90;99.90;;;-7.85;85.84;101770.22;10408572;27;96586;-79
2022/01/25 04:14:32;;;;;;;47.20;17.13;;;-5.70;99.90;;;-7.69;85.90;101762.31;10393141;28;96605;-79
2022/01/25 04:19:40;;;;;;;38.17;13.87;;;-5.50;99.90;;;-7.57;85.34;101759.63;10407247;27;96639;-79
2022/01/25 04:25:13;;;;;;;52.37;19.77;;;-5.30;99.90;;;-7.40;85.10;101756.88;10394847;28;97134;-79
2022/01/25 04:30:16;;;;;;;44.08;16.05;;;-5.20;99.90;;;-7.26;84.64;101744.66;10397253;28;96641;-78
2022/01/25 04:51:31;;;;;;;37.50;14.43;;;-4.70;99.90;;;-6.95;83.74;101714.16;10355849;28;96760;-78
2022/01/25 05:01:44;;;;;;;37.23;14.10;;;-4.60;99.90;;;-6.89;83.63;101701.16;10344258;28;96880;-77
2022/01/25 05:06:50;;;;;;;46.40;17.77;;;-4.60;99.90;;;-6.88;83.19;101696.84;10376906;28;96712;-80
2022/01/25 05:11:54;;;;;;;46.07;17.93;;;-4.60;99.90;;;-6.88;82.69;101692.50;10357718;28;97458;-77
2022/01/25 05:17:00;;;;;;;47.07;19.53;;;-4.60;99.90;;;-6.86;82.77;101693.34;10348435;28;96947;-77
2022/01/25 05:27:11;;;;;;;45.37;18.23;;;-4.60;99.90;;;-6.87;82.72;101691.63;10335176;28;97392;-78
2022/01/25 05:32:14;;;;;;;39.67;15.87;;;-4.60;99.90;;;-6.88;82.52;101692.50;10375528;28;96754;-78
2022/01/25 05:37:17;;;;;;;39.37;14.10;;;-4.60;99.90;;;-6.86;82.70;101689.91;10405451;28;96541;-78
2022/01/25 05:47:35;;;;;;;42.70;14.77;;;-4.60;99.90;;;-6.94;82.65;101679.69;10400134;28;97003;-78
2022/01/25 05:52:39;;;;;;;40.77;16.07;;;-4.70;99.90;;;-6.96;82.59;101676.25;10404193;27;96867;-78
2022/01/25 05:57:42;;;;;;;43.83;16.60;;;-4.70;99.90;;;-6.97;82.12;101671.94;10427963;27;98205;-78
2022/01/25 06:02:46;;;;;;;42.33;15.30;;;-4.70;99.90;;;-6.91;82.47;101673.59;10403172;28;96652;-79
2022/01/25 06:07:49;;;;;;;37.60;15.27;;;-4.70;99.90;;;-6.85;82.80;101665.75;10414406;28;96551;-78
2022/01/25 06:12:53;;;;;;;36.67;14.20;;;-4.60;99.90;;;-6.80;82.48;101672.56;10388586;28;96995;-78
2022/01/25 06:17:56;;;;;;;44.57;16.40;;;-4.50;99.90;;;-6.76;82.63;101671.66;10422860;28;96521;-78
2022/01/25 06:22:59;;;;;;;34.50;14.87;;;-4.50;99.90;;;-6.71;82.84;101660.41;10425585;27;96515;-79
2022/01/25 06:28:02;;;;;;;51.10;19.90;;;-4.50;99.90;;;-6.65;82.60;101656.00;10401481;28;96520;-78
2022/01/25 06:33:07;;;;;;;44.53;17.90;;;-4.40;99.90;;;-6.60;83.06;101664.50;10402029;28;96744;-78
2022/01/25 06:38:10;;;;;;;43.27;17.23;;;-4.40;99.90;;;-6.58;83.02;101659.34;10412563;28;96579;-79
2022/01/25 06:43:13;;;;;;;54.80;18.43;;;-4.30;99.90;;;-6.50;82.32;101654.91;10387822;28;97890;-79
2022/01/25 06:48:16;;;;;;;45.93;19.70;;;-4.30;99.90;;;-6.43;82.17;101655.66;10401719;27;96627;-78
2022/01/25 06:53:19;;;;;;;42.50;18.13;;;-4.20;99.90;;;-6.35;82.34;101665.00;10400639;27;96507;-77
2022/01/25 06:58:23;;;;;;;46.87;19.03;;;-4.10;99.90;;;-6.28;82.17;101669.19;10424559;27;96977;-79
2022/01/25 07:03:26;;;;;;;47.57;17.30;;;-4.10;99.90;;;-6.17;82.29;101663.00;10390905;27;96715;-79
2022/01/25 07:08:29;;;;;;;47.67;19.23;;;-4.00;99.90;;;-6.05;81.69;101663.63;10429443;27;96581;-79
2022/01/25 07:13:32;;;;;;;38.83;16.23;;;-3.90;99.90;;;-5.97;82.26;101666.09;10423097;27;98163;-79
2022/01/25 07:18:35;;;;;;;47.00;18.43;;;-3.80;99.90;;;-5.90;81.41;101654.69;10440773;27;96677;-79
2022/01/25 07:23:38;;;;;;;36.73;16.50;;;-3.70;99.90;;;-5.83;81.50;101663.22;10404478;27;97127;-79
2022/01/25 07:28:41;;;;;;;44.10;15.57;;;-3.70;99.90;;;-5.73;81.47;101650.06;10413780;27;96544;-79
2022/01/25 07:33:44;;;;;;;43.40;16.90;;;-3.60;99.90;;;-5.59;81.52;101659.31;10382044;28;98076;-79
2022/01/25 07:38:48;;;;;;;41.27;15.77;;;-3.40;99.90;;;-5.47;81.38;101659.06;10416325;27;97016;-79
2022/01/25 07:43:54;;;;;;;57.77;21.27;;;-3.30;99.90;;;-5.36;80.92;101657.13;10380286;28;96756;-79
2022/01/25 07:49:05;;;;;;;45.20;19.00;;;-3.20;99.90;;;-5.21;80.45;101666.31;10408391;27;96605;-79
2022/01/25 07:54:11;;;;;;;58.20;22.00;;;-3.10;99.90;;;-5.09;80.25;101660.88;10380052;27;96688;-77
2022/01/25 07:59:15;;;;;;;44.30;16.87;;;-3.00;99.90;;;-4.95;80.23;101652.78;10367381;28;96562;-77
2022/01/25 08:04:18;;;;;;;44.10;19.70;;;-2.90;99.90;;;-4.78;80.10;101642.91;10407851;27;96641;-77
2022/01/25 08:09:42;;;;;;;47.97;18.60;;;-2.70;99.90;;;-4.60;79.37;101644.22;10393283;27;96624;-76
2022/01/25 08:15:05;;;;;;;46.07;18.37;;;-2.60;99.90;;;-4.43;79.09;101639.47;10407024;27;97445;-79
2022/01/25 08:20:14;;;;;;;58.47;24.73;;;-2.40;99.90;;;-4.23;78.64;101635.53;10370983;27;96693;-76
2022/01/25 08:25:34;;;;;;;50.07;20.57;;;-2.20;99.90;;;-4.14;77.98;101636.16;10373646;28;96721;-79
2022/01/25 08:30:45;;;;;;;76.93;32.93;;;-2.10;99.90;;;-3.92;78.13;101627.78;10379100;28;96697;-78
2022/01/25 08:36:07;;;;;;;46.15;19.88;;;-1.90;99.90;;;-3.74;77.17;101618.66;10398231;27;99121;-79
2022/01/25 08:41:34;;;;;;;69.03;28.37;;;-1.80;99.90;;;-3.48;76.71;101625.72;10370250;28;96621;-78
2022/01/25 08:46:51;;;;;;;64.57;29.70;;;-1.50;99.90;;;-3.25;76.11;101618.09;10368172;28;96742;-78
2022/01/25 08:52:11;;;;;;;47.67;22.33;;;-1.30;99.90;;;-3.01;75.67;101600.91;10299491;28;96728;-80
2022/01/25 08:57:31;;;;;;;51.77;22.83;;;-1.10;99.90;;;-2.77;75.32;101607.09;10263050;28;98296;-80
2022/01/25 09:02:59;;;;;;;49.73;23.30;;;-0.90;99.90;;;-2.62;74.98;101604.03;10259196;28;96702;-82
2022/01/25 09:08:05;;;;;;;54.90;23.97;;;-0.70;99.90;;;-2.43;74.79;101605.13;10260613;28;96705;-79
2022/01/25 09:13:08;;;;;;;46.07;21.27;;;-0.50;99.90;;;-2.22;74.59;101600.97;10286350;28;97772;-79
2022/01/25 09:18:11;;;;;;;52.57;22.47;;;-0.30;99.90;;;-2.02;73.86;101589.84;10251058;28;98033;-79
2022/01/25 09:23:17;;;;;;;58.67;24.73;;;-0.10;99.90;;;-1.87;73.05;101598.88;10268214;28;97012;-77
2022/01/25 09:28:21;;;;;;;46.20;23.87;;;0.10;99.90;;;-1.59;72.81;101577.88;10319157;27;96884;-78
2022/01/25 09:33:26;;;;;;;49.33;22.53;;;0.20;99.90;;;-1.35;72.92;101569.13;10390620;28;97011;-78
2022/01/25 09:38:29;;;;;;;59.00;25.63;;;0.50;99.90;;;-1.19;72.04;101564.19;10411426;27;96527;-78
2022/01/25 09:43:32;;;;;;;61.13;26.50;;;0.70;99.90;;;-1.08;70.84;101575.06;10406914;27;98901;-78
2022/01/25 09:48:35;;;;;;;77.20;31.80;;;0.80;99.90;;;-0.89;70.40;101559.53;10390984;28;96884;-79
2022/01/25 09:53:40;;;;;;;60.33;25.50;;;1.00;99.90;;;-0.66;70.53;101555.09;10397441;27;97768;-78
2022/01/25 09:58:44;;;;;;;52.47;24.57;;;1.10;99.90;;;-0.51;69.67;101549.25;10415897;27;96595;-78
2022/01/25 10:03:48;;;;;;;68.53;31.63;;;1.30;99.90;;;-0.39;69.67;101538.31;10398407;27;96517;-80
2022/01/25 10:08:53;;;;;;;49.93;23.93;;;1.40;99.90;;;-0.12;69.79;101535.41;10408266;28;96651;-78
2022/01/25 10:13:57;;;;;;;72.63;38.00;;;1.60;99.90;;;0.11;68.73;101526.56;10419240;27;96492;-79
2022/01/25 10:19:05;;;;;;;54.00;26.70;;;1.90;99.90;;;0.34;68.54;101520.28;10404691;28;96596;-78
2022/01/25 10:24:19;;;;;;;49.83;25.80;;;2.10;99.90;;;0.59;67.85;101502.53;10380135;28;96602;-78
2022/01/25 10:29:32;;;;;;;51.67;25.37;;;2.30;99.90;;;0.72;67.90;101497.56;10407647;27;96948;-78
2022/01/25 10:34:44;;;;;;;49.97;24.20;;;2.50;99.90;;;0.97;67.28;101500.72;10409251;27;98246;-78
2022/01/25 10:39:51;;;;;;;54.23;24.73;;;2.70;99.90;;;1.32;66.34;101491.13;10387829;28;96759;-78
2022/01/25 10:45:10;;;;;;;57.57;28.03;;;3.00;99.90;;;1.56;65.74;101490.78;10388950;28;96592;-78
2022/01/25 10:50:20;;;;;;;62.67;27.60;;;3.30;99.10;;;1.67;64.51;101485.84;10418087;27;96637;-77
2022/01/25 10:55:23;;;;;;;67.37;30.80;;;3.50;98.60;;;1.78;64.47;101475.66;10383418;28;96915;-78
2022/01/25 11:00:37;;;;;;;65.27;30.00;;;3.60;98.20;;;1.93;64.74;101470.56;10377983;27;97336;-78
2022/01/25 11:05:43;;;;;;;51.07;24.70;;;3.70;97.90;;;2.13;64.00;101475.56;10397265;27;96570;-77
2022/01/25 11:10:59;;;;;;;49.55;24.13;;;3.90;96.90;;;2.31;63.91;101463.22;10391449;28;99127;-77
2022/01/25 11:16:11;;;;;;;37.80;18.07;;;4.00;96.80;;;2.43;63.49;101462.56;10418345;27;98158;-78
2022/01/25 11:21:14;;;;;;;43.80;22.17;;;4.20;96.50;;;2.48;63.45;101443.94;10408712;27;97588;-77
2022/01/25 11:26:17;;;;;;;44.20;19.70;;;4.20;96.10;;;2.60;62.61;101448.50;10372932;27;97537;-77
2022/01/25 11:31:23;;;;;;;26.50;13.23;;;4.30;95.20;;;2.32;59.49;101434.28;10370320;27;97900;-78
2022/01/25 11:36:26;;;;;;;31.00;13.70;;;4.20;93.30;;;2.02;60.51;101426.31;10410946;27;98848;-77
2022/01/25 11:41:29;;;;;;;25.87;12.53;;;3.90;92.40;;;2.11;62.18;101431.06;10384142;27;96735;-77
2022/01/25 11:46:32;;;;;;;24.00;12.17;;;3.90;93.00;;;2.26;61.67;101433.78;10385234;27;97675;-78
2022/01/25 11:51:35;;;;;;;25.97;13.30;;;4.10;92.90;;;2.22;62.12;101416.50;10393761;27;98566;-77
2022/01/25 11:56:41;;;;;;;23.80;12.77;;;4.00;92.90;;;2.19;62.49;101414.06;10384163;28;96724;-77
2022/01/25 12:01:50;;;;;;;24.23;13.03;;;4.00;92.90;;;2.16;63.04;101407.22;10393043;27;98514;-77
2022/01/25 12:07:01;;;;;;;28.83;12.37;;;3.90;93.10;;;2.15;64.40;101400.25;10411132;27;98290;-78
2022/01/25 12:12:10;;;;;;;24.13;12.80;;;4.00;93.70;;;2.02;65.02;101396.63;10394310;28;98036;-78
2022/01/25 12:17:25;;;;;;;27.23;14.27;;;3.80;94.40;;;1.98;66.42;101393.34;10377478;27;97494;-78
2022/01/25 12:22:46;;;;;;;23.23;11.97;;;3.80;95.10;;;1.93;67.02;101384.88;10380302;28;97938;-79
2022/01/25 12:27:59;;;;;;;22.03;11.40;;;3.70;95.80;;;1.86;68.65;101387.00;10380441;27;98514;-76
2022/01/25 12:33:29;;;;;;;19.33;10.83;;;3.70;96.50;;;1.95;69.26;101395.28;10380742;27;98147;-76
2022/01/25 12:38:39;;;;;;;23.50;11.20;;;3.70;97.40;;;2.07;69.21;101392.84;10382043;28;97506;-76
2022/01/25 12:43:44;;;;;;;27.70;14.63;;;3.80;97.90;;;2.19;67.80;101382.59;10374842;28;96498;-78
2022/01/25 12:48:51;;;;;;;39.77;16.63;;;3.90;97.70;;;2.18;67.17;101365.19;10380750;27;97668;-77
2022/01/25 12:54:03;;;;;;;29.63;13.63;;;4.00;97.30;;;2.18;66.91;101357.31;10381524;28;98126;-78
2022/01/25 12:59:23;;;;;;;25.60;12.70;;;4.00;97.00;;;2.13;68.22;101344.44;10396873;27;97633;-78
2022/01/25 13:04:29;;;;;;;23.13;11.83;;;3.90;97.40;;;2.16;68.72;101333.81;10385186;27;98073;-77
2022/01/25 13:09:40;;;;;;;26.17;13.60;;;3.90;97.90;;;2.14;68.63;101330.41;10385177;28;98208;-78
2022/01/25 13:15:03;;;;;;;54.17;22.93;;;4.00;98.00;;;1.98;69.14;101324.31;10385795;28;98198;-78
2022/01/25 13:20:07;;;;;;;39.70;20.67;;;3.80;98.20;;;1.96;69.73;101316.53;10392145;27;97424;-78
2022/01/25 13:30:45;;;;;;;30.50;15.50;;;3.80;98.70;;;1.66;69.82;101305.13;10401627;27;96900;-76
2022/01/25 13:35:56;;;;;;;41.40;21.00;;;3.60;98.50;;;1.31;70.25;101306.09;10365351;28;97778;-77
2022/01/25 13:46:22;;;;;;;42.90;19.37;;;3.00;99.00;;;0.60;73.44;101289.75;10372031;28;97086;-77
2022/01/25 13:51:37;;;;;;;42.30;19.50;;;2.70;99.90;;;0.42;74.41;101285.41;10396169;28;96863;-77
2022/01/25 13:56:40;;;;;;;38.20;18.63;;;2.40;99.90;;;0.35;75.34;101284.03;10388527;28;97475;-77
2022/01/25 14:01:44;;;;;;;59.57;24.17;;;2.30;99.90;;;0.30;76.42;101281.69;10388014;28;98159;-77
2022/01/25 14:06:56;;;;;;;49.57;23.80;;;2.20;99.90;;;0.31;76.29;101290.38;10345041;28;97508;-77
2022/01/25 14:28:21;;;;;;;38.90;19.30;;;2.00;99.90;;;0.21;78.42;101272.50;10363834;28;96634;-77
2022/01/25 14:33:33;;;;;;;41.07;20.20;;;2.10;99.90;;;0.33;77.90;101281.50;10341526;28;97429;-77
2022/01/25 14:38:42;;;;;;;35.53;17.43;;;2.20;99.90;;;0.40;78.29;101288.13;10335801;28;98372;-76
2022/01/25 14:43:56;;;;;;;37.73;16.57;;;2.30;99.90;;;0.48;78.48;101279.88;10369112;28;96738;-77
2022/01/25 14:49:07;;;;;;;34.93;17.93;;;2.30;99.90;;;0.52;78.33;101281.44;10364590;27;97467;-79
2022/01/25 14:54:25;;;;;;;31.90;16.93;;;2.40;99.90;;;0.51;77.71;101282.38;10359939;28;98568;-78
2022/01/25 14:59:38;;;;;;;39.13;18.37;;;2.40;99.90;;;0.46;77.98;101293.03;10339699;28;97603;-76
2022/01/25 15:04:45;;;;;;;41.27;19.83;;;2.40;99.90;;;0.35;78.50;101295.34;10345564;28;98189;-77
2022/01/25 15:09:53;;;;;;;38.70;19.03;;;2.30;99.90;;;0.19;78.78;101284.81;10345343;28;98472;-76
2022/01/25 15:20:10;;;;;;;89.60;37.70;;;2.00;99.90;;;-0.10;79.92;101282.75;10336241;28;98237;-77
2022/01/25 15:25:21;;;;;;;53.03;25.00;;;1.90;99.90;;;-0.25;80.62;101280.84;10318362;28;96533;-76
2022/01/25 15:30:24;;;;;;;52.25;24.67;;;1.70;99.90;;;-0.39;81.03;101290.19;10362031;28;96490;-76
2022/01/25 15:35:30;;;;;;;46.30;22.23;;;1.60;99.90;;;-0.49;81.63;101291.53;10346302;28;96518;-76
2022/01/25 15:40:34;;;;;;;41.07;19.23;;;1.50;99.90;;;-0.61;81.63;101287.72;10354547;28;96567;-76
2022/01/25 15:45:56;;;;;;;49.70;22.23;;;1.40;99.90;;;-0.69;82.24;101283.78;10355495;28;96564;-76
2022/01/25 15:51:00;;;;;;;51.80;22.13;;;1.40;99.90;;;-0.78;82.20;101285.03;10354397;28;96458;-76
2022/01/25 15:56:03;;;;;;;58.00;25.00;;;1.30;99.90;;;-0.79;83.22;101290.31;10372193;27;96521;-77
2022/01/25 16:01:07;;;;;;;59.53;26.07;;;1.20;99.90;;;-0.77;83.92;101288.50;10363684;28;96558;-77
2022/01/25 16:06:10;;;;;;;51.77;21.63;;;1.20;99.90;;;-0.73;83.74;101290.03;10361270;28;97220;-78
2022/01/25 16:11:14;;;;;;;51.03;20.33;;;1.30;99.90;;;-0.74;83.93;101280.50;10351652;28;97248;-77
2022/01/25 16:16:19;;;;;;;54.07;23.73;;;1.20;99.90;;;-0.77;84.12;101285.88;10364912;28;96765;-77
2022/01/25 16:21:22;;;;;;;52.20;24.33;;;1.20;99.90;;;-0.72;84.96;101289.09;10335287;28;98777;-77
2022/01/25 16:26:27;;;;;;;53.97;24.37;;;1.20;99.90;;;-0.65;85.62;101291.41;10345747;28;96542;-77
2022/01/25 16:31:32;;;;;;;53.90;24.83;;;1.30;99.90;;;-0.56;86.06;101293.56;10357733;28;96639;-77
2022/01/25 16:36:37;;;;;;;51.73;23.97;;;1.30;99.90;;;-0.52;85.80;101296.91;10399173;27;97077;-77
2022/01/25 16:41:42;;;;;;;55.23;22.93;;;1.40;99.90;;;-0.52;86.17;101302.13;10413466;28;96983;-78
2022/01/25 16:46:45;;;;;;;52.93;24.00;;;1.40;99.90;;;-0.51;85.60;101289.91;10390413;28;96532;-80
2022/01/25 16:51:48;;;;;;;57.10;26.83;;;1.40;99.90;;;-0.51;85.68;101287.31;10413279;28;97708;-80
2022/01/25 16:56:51;;;;;;;45.53;21.83;;;1.40;99.90;;;-0.55;86.30;101284.81;10400950;28;97297;-78
2022/01/25 17:01:54;;;;;;;58.50;25.43;;;1.40;99.90;;;-0.51;86.41;101282.94;10407272;27;96547;-78
2022/01/25 17:06:57;;;;;;;66.20;27.57;;;1.40;99.90;;;-0.56;86.54;101272.69;10403583;27;96682;-77
2022/01/25 17:12:00;;;;;;;64.47;26.67;;;1.40;99.90;;;-0.53;86.59;101273.47;10411806;27;96860;-77
2022/01/25 17:17:03;;;;;;;62.03;27.13;;;1.40;99.90;;;-0.55;86.77;101276.13;10395830;28;97564;-77
2022/01/25 17:22:07;;;;;;;64.60;26.77;;;1.40;99.90;;;-0.55;87.25;101263.09;10414557;28;96494;-77
2022/01/25 17:27:11;;;;;;;59.60;28.50;;;1.50;99.90;;;-0.51;87.46;101267.25;10378413;28;96605;-77
2022/01/25 17:32:14;;;;;;;61.80;28.37;;;1.40;99.90;;;-0.49;88.16;101268.03;10395773;27;96703;-77
2022/01/25 17:37:18;;;;;;;51.33;23.40;;;1.50;99.90;;;-0.45;88.33;101266.13;10397326;28;96585;-77
2022/01/25 17:42:21;;;;;;;47.97;22.33;;;1.50;99.90;;;-0.32;89.24;101260.25;10408596;28;98198;-77
2022/01/25 17:47:24;;;;;;;49.27;22.70;;;1.60;99.90;;;-0.14;89.59;101262.91;10401703;27;96727;-77
2022/01/25 17:52:27;;;;;;;51.20;23.13;;;1.70;99.90;;;0.02;89.57;101274.31;10381748;28;96627;-77
2022/01/25 17:57:30;;;;;;;43.13;21.27;;;1.80;99.90;;;0.15;89.36;101278.03;10423696;27;98262;-77
2022/01/25 18:02:34;;;;;;;44.63;22.43;;;1.90;99.90;;;0.29;89.50;101269.50;10400686;27;98477;-76
2022/01/25 18:07:38;;;;;;;37.77;18.87;;;2.10;99.90;;;0.48;89.35;101269.44;10401243;28;96906;-77
2022/01/25 18:12:41;;;;;;;35.77;16.50;;;2.20;99.90;;;0.64;89.35;101265.13;10402860;28;96712;-77
2022/01/25 18:17:44;;;;;;;43.60;21.27;;;2.40;99.90;;;0.75;88.74;101252.34;10395868;28;96573;-77
2022/01/25 18:22:57;;;;;;;38.47;19.00;;;2.50;99.90;;;0.80;88.30;101250.34;10383529;27;96900;-77
2022/01/25 18:28:10;;;;;;;41.53;18.03;;;2.60;99.90;;;0.84;88.00;101258.00;10388571;28;96923;-78
2022/01/25 18:33:13;;;;;;;36.30;16.60;;;2.60;99.90;;;0.85;87.92;101257.09;10401586;27;98017;-76
2022/01/25 18:38:20;;;;;;;37.30;16.30;;;2.60;99.90;;;0.86;87.96;101261.41;10373909;28;98561;-76
2022/01/25 18:43:23;;;;;;;39.47;19.50;;;2.60;99.90;;;0.88;87.63;101267.41;10397880;27;98437;-78
2022/01/25 18:48:29;;;;;;;42.83;18.77;;;2.70;99.90;;;0.89;87.84;101269.09;10377020;28;96951;-77
2022/01/25 18:53:33;;;;;;;39.73;18.77;;;2.70;99.90;;;0.96;87.65;101263.47;10350673;28;96480;-78
2022/01/25 18:58:36;;;;;;;38.43;16.33;;;2.70;99.90;;;1.01;87.73;101261.44;10396939;27;97331;-76
2022/01/25 19:03:40;;;;;;;31.73;15.10;;;2.80;99.90;;;1.09;87.98;101261.06;10384396;28;96542;-77
2022/01/25 19:08:42;;;;;;;35.90;17.27;;;2.80;99.90;;;1.18;87.16;101249.22;10350218;28;96468;-76
2022/01/25 19:13:45;;;;;;;33.17;16.03;;;2.90;99.90;;;1.22;86.87;101246.38;10397666;27;96512;-77
2022/01/25 19:18:49;;;;;;;36.33;16.23;;;3.00;99.90;;;1.27;86.85;101244.34;10355182;28;96632;-76
2022/01/25 19:23:52;;;;;;;36.50;16.30;;;3.00;99.90;;;1.34;86.69;101253.56;10339992;28;96450;-78
2022/01/25 19:28:55;;;;;;;34.93;15.43;;;3.10;99.90;;;1.37;86.20;101238.59;10370697;28;96514;-77
2022/01/25 19:33:58;;;;;;;33.97;15.43;;;3.10;99.90;;;1.41;86.05;101250.63;10378404;27;96773;-76
2022/01/25 19:39:02;;;;;;;33.00;15.93;;;3.20;99.90;;;1.45;85.65;101245.13;10381289;27;96718;-77
2022/01/25 19:44:05;;;;;;;31.33;14.83;;;3.20;99.90;;;1.49;85.85;101245.78;10363394;28;96520;-78
2022/01/25 19:49:09;;;;;;;34.50;16.13;;;3.30;99.90;;;1.51;85.27;101244.78;10359507;28;97747;-78
2022/01/25 19:54:17;;;;;;;29.33;13.77;;;3.30;99.90;;;1.55;85.09;101245.44;10377197;27;98198;-78
2022/01/25 19:59:24;;;;;;;31.13;14.63;;;3.30;99.90;;;1.59;84.88;101247.81;10376637;28;96684;-80
2022/01/25 20:04:27;;;;;;;30.90;14.10;;;3.30;99.90;;;1.64;84.77;101236.25;10368476;28;96933;-78
2022/01/25 20:09:40;;;;;;;26.67;13.03;;;3.40;99.90;;;1.65;84.65;101246.66;10358564;28;96943;-78
2022/01/25 20:14:50;;;;;;;31.00;14.27;;;3.40;99.90;;;1.67;84.74;101242.16;10370103;28;96532;-78
2022/01/25 20:19:55;;;;;;;32.60;14.10;;;3.40;99.90;;;1.67;84.57;101246.56;10358235;28;96706;-78
2022/01/25 20:30:26;;;;;;;30.43;14.23;;;3.40;99.90;;;1.68;84.54;101251.72;10333775;28;97102;-79
2022/01/25 20:35:30;;;;;;;29.77;13.57;;;3.40;99.90;;;1.70;84.32;101241.16;10389794;27;96932;-78
2022/01/25 20:40:33;;;;;;;34.47;15.70;;;3.50;99.90;;;1.70;84.42;101249.00;10348372;28;96569;-79
2022/01/25 20:45:35;;;;;;;31.97;14.47;;;3.50;99.90;;;1.71;84.63;101250.69;10367851;28;98575;-76
2022/01/25 20:50:40;;;;;;;30.07;14.47;;;3.50;99.90;;;1.71;84.25;101254.16;10367221;28;96581;-78
2022/01/25 20:55:43;;;;;;;43.20;18.80;;;3.50;99.90;;;1.72;84.41;101242.75;10374484;28;96595;-80
2022/01/25 21:00:47;;;;;;;28.93;14.50;;;3.50;99.90;;;1.71;84.00;101242.84;10365846;28;98015;-82
2022/01/25 21:11:15;;;;;;;26.27;13.40;;;3.50;99.90;;;1.66;83.98;101250.09;10357577;28;96528;-78
2022/01/25 21:16:20;;;;;;;28.70;14.37;;;3.50;99.90;;;1.63;84.44;101247.69;10389910;27;96622;-79
2022/01/25 21:21:24;;;;;;;31.27;13.20;;;3.50;99.90;;;1.62;84.15;101252.06;10349473;28;97830;-79
2022/01/25 21:26:29;;;;;;;32.53;15.10;;;3.40;99.90;;;1.58;84.28;101255.78;10385589;28;97242;-77
2022/01/25 21:31:32;;;;;;;33.77;14.33;;;3.50;99.90;;;1.54;84.17;101243.78;10382324;27;96583;-79
2022/01/25 21:36:39;;;;;;;29.80;15.23;;;3.40;99.90;;;1.50;83.83;101242.22;10360950;28;96653;-77
2022/01/25 21:41:47;;;;;;;36.47;16.07;;;3.40;99.90;;;1.46;84.43;101240.72;10393511;28;97091;-79
2022/01/25 21:46:50;;;;;;;32.10;16.43;;;3.40;99.90;;;1.40;84.16;101241.06;10374758;28;98495;-79
2022/01/25 21:51:53;;;;;;;31.87;14.97;;;3.30;99.90;;;1.32;84.36;101239.72;10395355;28;97340;-78
2022/01/25 21:56:56;;;;;;;40.20;16.10;;;3.30;99.90;;;1.28;84.76;101246.03;10387711;28;97018;-78
2022/01/25 22:01:59;;;;;;;31.70;14.20;;;3.20;99.90;;;1.24;84.77;101241.88;10397106;27;96941;-78
2022/01/25 22:07:09;;;;;;;30.07;13.63;;;3.20;99.90;;;1.23;84.79;101234.97;10395392;28;96536;-78
2022/01/25 22:12:18;;;;;;;30.57;13.90;;;3.20;99.90;;;1.20;84.96;101237.75;10399294;28;96562;-78
2022/01/25 22:17:23;;;;;;;46.77;18.00;;;3.20;99.90;;;1.17;84.89;101243.16;10417217;27;96633;-79
2022/01/25 22:22:26;;;;;;;39.60;18.27;;;3.10;99.90;;;1.09;85.08;101240.09;10420982;28;96342;-77
2022/01/25 22:27:32;;;;;;;34.07;16.07;;;3.10;99.90;;;1.01;85.17;101242.28;10395949;28;96480;-79
2022/01/25 22:32:36;;;;;;;45.80;18.20;;;3.00;99.90;;;0.89;85.02;101241.13;10392405;28;96696;-77
2022/01/25 22:37:42;;;;;;;47.60;17.40;;;3.00;99.90;;;0.78;85.31;101236.50;10421563;28;97785;-77
2022/01/25 22:42:45;;;;;;;37.60;16.87;;;2.90;99.90;;;0.70;85.46;101229.94;10407729;28;96529;-77
2022/01/25 22:47:57;;;;;;;36.30;15.17;;;2.80;99.90;;;0.59;85.59;101234.88;10431945;27;96787;-77
2022/01/25 22:53:00;;;;;;;44.40;18.20;;;2.70;99.90;;;0.45;85.62;101232.97;10387675;28;96591;-77
2022/01/25 22:58:07;;;;;;;36.03;15.70;;;2.60;99.90;;;0.29;85.83;101226.81;10377585;28;96618;-77
2022/01/25 23:03:10;;;;;;;42.40;17.17;;;2.40;99.90;;;0.13;86.17;101218.94;10423582;27;96549;-77
2022/01/25 23:08:13;;;;;;;35.43;17.20;;;2.30;99.90;;;-0.05;85.92;101218.06;10401103;28;97038;-77
2022/01/25 23:18:46;;;;;;;40.47;18.30;;;2.00;99.90;;;-0.30;87.27;101221.88;10403673;28;96585;-77
2022/01/25 23:23:51;;;;;;;49.28;19.95;;;1.90;99.90;;;-0.45;87.35;101219.97;10412456;28;96769;-79